createdAt,value
2023-01-21T00:01:10.857Z,2.10
2023-01-21T00:03:38.092Z,3.90
2023-01-21T00:06:05.589Z,2.13
2023-01-21T00:08:32.653Z,1.80
2023-01-21T00:11:10.828Z,1.05
2023-01-21T00:13:38.270Z,2.97
2023-01-21T00:16:05.993Z,1.85
2023-01-21T00:18:33.998Z,0.93
2023-01-21T00:21:01.360Z,1.40
2023-01-21T00:23:28.655Z,1.58
2023-01-21T00:26:05.520Z,1.63
2023-01-21T00:28:34.977Z,2.22
2023-01-21T00:31:04.466Z,3.97
2023-01-21T00:33:32.609Z,1.85
2023-01-21T00:36:07.168Z,2.58
2023-01-21T00:38:37.894Z,1.52
2023-01-21T00:41:11.001Z,2.10
2023-01-21T00:43:39.471Z,1.42
2023-01-21T00:46:07.041Z,3.45
2023-01-21T00:48:35.043Z,2.03
2023-01-21T00:51:02.295Z,1.30
2023-01-21T00:53:31.907Z,1.77
2023-01-21T00:56:00.733Z,0.98
2023-01-21T00:58:28.750Z,6.55
2023-01-21T01:01:11.106Z,1.65
2023-01-21T01:03:39.403Z,2.00
2023-01-21T01:06:09.449Z,2.28
2023-01-21T01:08:36.639Z,1.92
2023-01-21T01:11:04.288Z,1.50
2023-01-21T01:13:32.880Z,1.65
2023-01-21T01:16:00.384Z,1.65
2023-01-21T01:18:28.936Z,2.70
2023-01-21T01:20:56.875Z,4.18
2023-01-21T01:23:23.961Z,0.60
2023-01-21T01:26:02.955Z,3.22
2023-01-21T01:28:31.027Z,1.50
2023-01-21T01:30:59.675Z,2.25
2023-01-21T01:33:27.477Z,1.75
2023-01-21T01:35:54.346Z,1.48
2023-01-21T01:38:22.856Z,0.90
2023-01-21T01:40:52.698Z,1.85
2023-01-21T01:43:47.059Z,1.70
2023-01-21T01:46:14.676Z,1.10
2023-01-21T01:48:44.884Z,3.50
2023-01-21T01:51:13.715Z,0.98
2023-01-21T01:53:45.643Z,0.77
2023-01-21T01:56:14.591Z,0.68
2023-01-21T01:58:52.051Z,2.38
2023-01-21T02:01:19.256Z,1.83
2023-01-21T02:03:52.937Z,0.77
2023-01-21T02:06:19.906Z,0.70
2023-01-21T02:08:47.764Z,1.27
2023-01-21T02:11:17.302Z,1.58
2023-01-21T02:13:54.574Z,2.63
2023-01-21T02:16:54.168Z,1.77
2023-01-21T02:20:00.277Z,0.57
2023-01-21T02:22:52.006Z,0.65
2023-01-21T02:25:50.040Z,1.65
2023-01-21T02:28:54.506Z,1.33
2023-01-21T02:31:59.652Z,3.55
2023-01-21T02:34:41.864Z,0.50
2023-01-21T02:37:46.123Z,1.38
2023-01-21T02:40:29.483Z,1.05
2023-01-21T02:43:29.490Z,2.38
2023-01-21T02:46:08.510Z,1.15
2023-01-21T02:48:42.673Z,1.83
2023-01-21T02:51:12.854Z,0.63
2023-01-21T02:53:40.074Z,0.75
2023-01-21T02:56:12.888Z,1.00
2023-01-21T02:58:45.517Z,3.47
2023-01-21T03:01:36.696Z,0.57
2023-01-21T03:04:41.084Z,1.45
2023-01-21T03:07:21.399Z,1.15
2023-01-21T03:09:48.823Z,1.05
2023-01-21T03:12:31.298Z,2.88
2023-01-21T03:15:28.298Z,0.88
2023-01-21T03:18:17.863Z,0.40
2023-01-21T03:20:49.489Z,0.95
2023-01-21T03:23:48.255Z,1.02
2023-01-21T03:26:19.010Z,0.75
2023-01-21T03:28:49.133Z,1.75
2023-01-21T03:31:28.532Z,0.68
2023-01-21T03:34:00.336Z,0.77
2023-01-21T03:36:37.396Z,1.08
2023-01-21T03:41:39.091Z,0.82
2023-01-21T03:44:06.843Z,0.88
2023-01-21T03:47:05.526Z,2.47
2023-01-21T03:49:34.901Z,2.00
2023-01-21T03:52:04.642Z,1.50
2023-01-21T03:54:32.438Z,0.47
2023-01-21T03:56:59.353Z,0.60
2023-01-21T03:59:26.313Z,2.33
2023-01-21T04:01:53.706Z,2.95
2023-01-21T04:04:20.611Z,0.85
2023-01-21T04:06:50.020Z,2.78
2023-01-21T04:09:16.869Z,0.40
2023-01-21T04:11:44.109Z,0.73
2023-01-21T04:14:11.024Z,1.30
2023-01-21T04:16:38.009Z,1.15
2023-01-21T04:19:05.419Z,1.60
2023-01-21T04:21:32.583Z,1.25
2023-01-21T04:23:59.514Z,0.63
2023-01-21T04:26:26.433Z,0.68
2023-01-21T04:28:53.589Z,1.40
2023-01-21T04:31:20.509Z,1.65
2023-01-21T04:33:47.419Z,0.80
2023-01-21T04:36:14.424Z,1.55
2023-01-21T04:38:41.443Z,0.80
2023-01-21T04:41:11.100Z,0.73
2023-01-21T04:43:39.168Z,0.65
2023-01-21T04:46:06.486Z,2.00
2023-01-21T04:48:33.821Z,3.20
2023-01-21T04:51:00.793Z,0.70
2023-01-21T04:53:27.651Z,1.10
2023-01-21T04:55:54.862Z,0.63
2023-01-21T04:58:21.938Z,0.88
2023-01-21T05:00:49.293Z,1.98
2023-01-21T05:03:16.509Z,1.67
2023-01-21T05:05:43.391Z,1.88
2023-01-21T05:08:10.248Z,1.45
2023-01-21T05:10:37.120Z,2.25
2023-01-21T05:13:04.357Z,0.90
2023-01-21T05:15:31.658Z,2.28
2023-01-21T05:17:58.569Z,2.08
2023-01-21T05:20:26.083Z,3.47
2023-01-21T05:22:53.255Z,2.35
2023-01-21T05:25:20.113Z,2.88
2023-01-21T05:28:05.109Z,2.47
2023-01-21T05:30:32.323Z,2.42
2023-01-21T05:32:59.235Z,1.58
2023-01-21T05:35:28.803Z,2.67
2023-01-21T05:37:55.964Z,1.58
2023-01-21T05:40:22.942Z,1.98
2023-01-21T05:42:49.815Z,1.92
2023-01-21T05:45:16.786Z,2.28
2023-01-21T05:47:43.692Z,3.67
2023-01-21T05:50:12.062Z,4.28
2023-01-21T05:52:38.891Z,2.20
2023-01-21T05:55:06.402Z,3.25
2023-01-21T05:57:33.354Z,5.15
2023-01-21T06:00:00.258Z,1.50
2023-01-21T06:02:27.334Z,2.58
2023-01-21T06:04:54.446Z,3.00
2023-01-21T06:07:21.384Z,3.63
2023-01-21T06:09:48.373Z,3.33
2023-01-21T06:12:15.269Z,3.35
2023-01-21T06:14:42.720Z,1.52
2023-01-21T06:17:10.054Z,5.60
2023-01-21T06:19:36.864Z,2.00
2023-01-21T06:22:03.914Z,3.10
2023-01-21T06:24:30.823Z,7.22
2023-01-21T06:26:57.775Z,3.90
2023-01-21T06:29:24.943Z,2.67
2023-01-21T06:31:51.962Z,5.93
2023-01-21T06:34:18.961Z,3.58
2023-01-21T06:36:46.115Z,3.50
2023-01-21T06:39:13.466Z,5.93
2023-01-21T06:41:40.790Z,1.92
2023-01-21T06:44:08.027Z,3.97
2023-01-21T06:46:35.226Z,3.13
2023-01-21T06:49:02.395Z,2.90
2023-01-21T06:51:29.289Z,2.80
2023-01-21T06:53:56.147Z,4.25
2023-01-21T06:56:23.317Z,2.17
2023-01-21T06:58:50.178Z,1.92
2023-01-21T07:01:17.141Z,2.70
2023-01-21T07:03:46.947Z,4.47
2023-01-21T07:06:14.222Z,3.63
2023-01-21T07:08:43.436Z,4.63
2023-01-21T07:11:10.311Z,4.85
2023-01-21T07:13:37.582Z,3.25
2023-01-21T07:16:06.921Z,4.63
2023-01-21T07:18:34.261Z,4.25
2023-01-21T07:21:01.180Z,5.10
2023-01-21T07:23:30.073Z,2.58
2023-01-21T07:25:57.079Z,3.53
2023-01-21T07:28:23.942Z,3.75
2023-01-21T07:30:51.717Z,3.53
2023-01-21T07:33:18.917Z,4.95
2023-01-21T07:35:45.844Z,3.17
2023-01-21T07:38:13.056Z,3.20
2023-01-21T07:40:39.919Z,4.95
2023-01-21T07:43:06.869Z,6.63
2023-01-21T07:45:33.765Z,4.47
2023-01-21T07:48:00.794Z,2.83
2023-01-21T07:50:27.833Z,4.57
2023-01-21T07:52:55.191Z,4.93
2023-01-21T07:55:22.717Z,4.90
2023-01-21T07:57:49.572Z,7.35
2023-01-21T08:00:16.946Z,3.22
2023-01-21T08:02:44.560Z,7.00
2023-01-21T08:05:11.701Z,5.70
2023-01-21T08:07:38.825Z,5.63
2023-01-21T08:12:31.505Z,4.75
2023-01-21T08:14:58.379Z,6.22
2023-01-21T08:17:25.320Z,6.97
2023-01-21T08:19:52.182Z,5.35
2023-01-21T08:22:19.085Z,6.40
2023-01-21T08:24:46.387Z,9.52
2023-01-21T08:27:13.248Z,5.25
2023-01-21T08:29:40.103Z,6.05
2023-01-21T08:32:06.960Z,4.57
2023-01-21T08:34:34.086Z,9.35
2023-01-21T08:37:01.329Z,4.60
2023-01-21T08:39:28.197Z,4.05
2023-01-21T08:41:55.029Z,6.68
2023-01-21T08:44:21.989Z,3.25
2023-01-21T08:46:49.508Z,5.90
2023-01-21T08:49:16.459Z,5.63
2023-01-21T08:51:43.693Z,4.07
2023-01-21T08:54:10.655Z,6.95
2023-01-21T08:56:37.608Z,6.22
2023-01-21T08:59:04.584Z,5.32
2023-01-21T09:01:31.750Z,5.72
2023-01-21T09:03:59.960Z,9.25
2023-01-21T09:06:29.347Z,5.30
2023-01-21T09:08:56.904Z,6.90
2023-01-21T09:11:24.115Z,7.63
2023-01-21T09:13:51.646Z,6.25
2023-01-21T09:16:22.547Z,7.32
2023-01-21T09:18:50.211Z,9.02
2023-01-21T09:21:17.579Z,8.82
2023-01-21T09:23:44.867Z,8.43
2023-01-21T09:26:20.452Z,6.85
2023-01-21T09:28:53.148Z,7.95
2023-01-21T09:31:26.852Z,7.13
2023-01-21T09:33:59.627Z,6.18
2023-01-21T09:36:29.513Z,6.28
2023-01-21T09:38:57.447Z,8.65
2023-01-21T09:41:38.329Z,10.35
2023-01-21T09:44:30.008Z,11.38
2023-01-21T09:47:04.483Z,10.07
2023-01-21T09:49:46.844Z,10.63
2023-01-21T09:52:20.492Z,11.43
2023-01-21T09:54:47.612Z,7.63
2023-01-21T09:57:15.679Z,9.98
2023-01-21T09:59:45.425Z,11.05
2023-01-21T10:02:34.356Z,10.05
2023-01-21T10:05:33.044Z,11.18
2023-01-21T10:08:22.996Z,10.80
2023-01-21T10:10:57.928Z,8.88
2023-01-21T10:13:30.970Z,10.88
2023-01-21T10:16:10.526Z,13.13
2023-01-21T10:18:45.285Z,12.13
2023-01-21T10:21:38.959Z,11.82
2023-01-21T10:24:28.209Z,11.27
2023-01-21T10:26:55.560Z,10.75
2023-01-21T10:29:26.425Z,13.32
2023-01-21T10:32:08.755Z,13.18
2023-01-21T10:34:40.182Z,13.77
2023-01-21T10:37:42.381Z,10.20
2023-01-21T10:40:43.853Z,12.85
2023-01-21T10:43:45.830Z,13.15
2023-01-21T10:46:23.826Z,13.48
2023-01-21T10:49:35.660Z,13.63
2023-01-21T10:52:19.729Z,10.32
2023-01-21T10:55:14.401Z,15.55
2023-01-21T10:58:01.680Z,14.80
2023-01-21T11:00:43.147Z,15.80
2023-01-21T11:03:30.027Z,16.52
2023-01-21T11:06:00.960Z,15.05
2023-01-21T11:08:28.866Z,15.23
2023-01-21T11:10:56.462Z,14.35
2023-01-21T11:13:24.482Z,15.98
2023-01-21T11:15:57.877Z,15.13
2023-01-21T11:18:38.395Z,15.18
2023-01-21T11:21:23.742Z,12.48
2023-01-21T11:24:01.902Z,16.00
2023-01-21T11:26:30.985Z,13.43
2023-01-21T11:29:10.256Z,15.23
2023-01-21T11:31:38.338Z,14.95
2023-01-21T11:34:10.839Z,17.10
2023-01-21T11:36:37.749Z,15.90
2023-01-21T11:39:09.230Z,14.38
2023-01-21T11:41:36.501Z,15.63
2023-01-21T11:44:17.633Z,16.17
2023-01-21T11:46:44.965Z,19.02
2023-01-21T11:49:12.400Z,14.82
2023-01-21T11:51:41.961Z,18.25
2023-01-21T11:54:16.176Z,17.83
2023-01-21T11:56:56.497Z,16.42
2023-01-21T11:59:34.252Z,15.27
2023-01-21T12:02:25.611Z,19.38
2023-01-21T12:04:55.859Z,17.08
2023-01-21T12:07:31.720Z,14.75
2023-01-21T12:10:08.664Z,18.67
2023-01-21T12:13:01.923Z,18.88
2023-01-21T12:15:57.785Z,16.58
2023-01-21T12:18:49.469Z,16.35
2023-01-21T12:21:48.586Z,17.02
2023-01-21T12:24:58.619Z,16.92
2023-01-21T12:27:42.330Z,16.98
2023-01-21T12:30:12.488Z,17.80
2023-01-21T12:32:52.551Z,16.92
2023-01-21T12:35:30.542Z,18.42
2023-01-21T12:38:33.081Z,17.60
2023-01-21T12:41:12.465Z,15.52
2023-01-21T12:43:52.439Z,14.02
2023-01-21T12:46:27.577Z,17.17
2023-01-21T12:49:04.735Z,14.20
2023-01-21T12:51:49.810Z,14.57
2023-01-21T12:54:40.607Z,17.33
2023-01-21T12:57:27.271Z,15.85
2023-01-21T13:00:13.183Z,16.55
2023-01-21T13:02:58.354Z,16.15
2023-01-21T13:05:44.021Z,15.60
2023-01-21T13:08:37.038Z,15.02
2023-01-21T13:11:32.608Z,14.35
2023-01-21T13:14:08.889Z,19.05
2023-01-21T13:16:41.151Z,16.17
2023-01-21T13:19:13.230Z,14.73
2023-01-21T13:21:44.169Z,16.67
2023-01-21T13:24:41.684Z,15.02
2023-01-21T13:27:22.117Z,15.45
2023-01-21T13:29:51.828Z,12.18
2023-01-21T13:32:46.077Z,14.02
2023-01-21T13:35:23.719Z,14.02
2023-01-21T13:38:14.537Z,13.80
2023-01-21T13:40:50.389Z,11.80
2023-01-21T13:43:26.139Z,12.77
2023-01-21T13:46:07.579Z,11.88
2023-01-21T13:48:53.327Z,11.32
2023-01-21T13:51:41.458Z,14.90
2023-01-21T13:54:45.309Z,12.13
2023-01-21T13:57:21.004Z,13.05
2023-01-21T13:59:57.123Z,11.85
2023-01-21T14:02:40.913Z,12.52
2023-01-21T14:05:36.755Z,13.05
2023-01-21T14:08:19.297Z,12.55
2023-01-21T14:10:50.508Z,12.52
2023-01-21T14:13:55.126Z,11.40
2023-01-21T14:17:07.151Z,13.70
2023-01-21T14:20:11.775Z,14.40
2023-01-21T14:23:29.645Z,11.55
2023-01-21T14:25:59.340Z,10.95
2023-01-21T14:28:40.796Z,12.48
2023-01-21T14:31:12.880Z,12.98
2023-01-21T14:33:57.398Z,11.60
2023-01-21T14:36:43.605Z,12.38
2023-01-21T14:39:38.234Z,14.77
2023-01-21T14:44:51.442Z,12.00
2023-01-21T14:47:18.357Z,12.05
2023-01-21T14:49:51.297Z,13.82
2023-01-21T14:52:27.125Z,11.85
2023-01-21T14:54:54.055Z,12.80
2023-01-21T14:57:41.587Z,14.68
2023-01-21T15:00:13.711Z,16.42
2023-01-21T15:02:44.305Z,13.38
2023-01-21T15:05:11.291Z,12.93
2023-01-21T15:07:41.446Z,18.45
2023-01-21T15:10:30.341Z,18.80
2023-01-21T15:13:00.316Z,12.40
2023-01-21T15:15:35.004Z,12.32
2023-01-21T15:18:22.455Z,15.18
2023-01-21T15:20:53.077Z,13.65
2023-01-21T15:23:32.369Z,12.05
2023-01-21T15:26:09.133Z,14.68
2023-01-21T15:28:46.462Z,14.77
2023-01-21T15:31:44.159Z,16.75
2023-01-21T15:34:17.524Z,19.55
2023-01-21T15:36:48.859Z,14.60
2023-01-21T15:39:28.997Z,17.10
2023-01-21T15:42:29.905Z,15.07
2023-01-21T15:45:14.242Z,14.60
2023-01-21T15:48:08.099Z,13.30
2023-01-21T15:50:51.647Z,16.20
2023-01-21T15:53:55.547Z,14.07
2023-01-21T15:56:50.404Z,16.73
2023-01-21T15:59:20.562Z,15.65
2023-01-21T16:02:09.158Z,13.32
2023-01-21T16:04:46.902Z,13.13
2023-01-21T16:07:27.303Z,13.50
2023-01-21T16:10:18.457Z,14.77
2023-01-21T16:13:00.753Z,11.35
2023-01-21T16:15:53.137Z,20.77
2023-01-21T16:18:31.724Z,16.23
2023-01-21T16:21:02.504Z,11.32
2023-01-21T16:23:35.443Z,16.25
2023-01-21T16:26:03.300Z,12.85
2023-01-21T16:28:44.912Z,11.73
2023-01-21T16:31:12.224Z,18.38
2023-01-21T16:33:39.185Z,15.55
2023-01-21T16:36:08.786Z,16.25
2023-01-21T16:38:37.805Z,14.85
2023-01-21T16:41:07.945Z,17.50
2023-01-21T16:43:45.237Z,12.07
2023-01-21T16:46:15.559Z,13.80
2023-01-21T16:48:43.276Z,16.90
2023-01-21T16:51:24.482Z,15.60
2023-01-21T16:54:15.513Z,12.27
2023-01-21T16:56:48.426Z,11.88
2023-01-21T16:59:20.542Z,10.52
2023-01-21T17:01:49.244Z,13.80
2023-01-21T17:04:16.273Z,13.45
2023-01-21T17:06:45.415Z,14.18
2023-01-21T17:09:40.770Z,14.65
2023-01-21T17:12:23.086Z,16.35
2023-01-21T17:15:15.422Z,14.07
2023-01-21T17:17:42.760Z,15.70
2023-01-21T17:20:35.574Z,11.55
2023-01-21T17:23:21.210Z,17.40
2023-01-21T17:26:03.967Z,12.70
2023-01-21T17:28:32.217Z,16.30
2023-01-21T17:31:19.638Z,13.18
2023-01-21T17:34:01.634Z,14.77
2023-01-21T17:36:34.324Z,16.65
2023-01-21T17:39:02.355Z,12.07
2023-01-21T17:41:34.699Z,16.13
2023-01-21T17:44:20.390Z,10.73
2023-01-21T17:46:49.364Z,16.80
2023-01-21T17:49:19.628Z,15.68
2023-01-21T17:51:47.188Z,20.98
2023-01-21T17:54:19.518Z,15.48
2023-01-21T17:56:52.361Z,16.67
2023-01-21T17:59:39.249Z,15.52
2023-01-21T18:02:11.352Z,18.05
2023-01-21T18:04:39.209Z,15.75
2023-01-21T18:07:27.800Z,16.73
2023-01-21T18:09:58.871Z,16.48
2023-01-21T18:12:26.075Z,18.40
2023-01-21T18:14:52.993Z,17.75
2023-01-21T18:17:23.918Z,17.33
2023-01-21T18:22:21.935Z,14.07
2023-01-21T18:27:17.464Z,12.70
2023-01-21T18:29:45.104Z,12.18
2023-01-21T18:32:15.982Z,12.48
2023-01-21T18:37:18.521Z,14.35
2023-01-21T18:39:45.827Z,17.02
2023-01-21T18:42:15.337Z,17.80
2023-01-21T18:44:43.092Z,18.52
2023-01-21T18:47:12.937Z,19.95
2023-01-21T18:49:40.321Z,14.60
2023-01-21T18:52:10.278Z,14.90
2023-01-21T18:54:37.428Z,13.88
2023-01-21T18:57:14.474Z,14.35
2023-01-21T18:59:41.754Z,14.57
2023-01-21T19:02:17.778Z,12.18
2023-01-21T19:04:45.296Z,13.77
2023-01-21T19:07:22.239Z,14.32
2023-01-21T19:09:51.451Z,11.80
2023-01-21T19:12:21.446Z,16.08
2023-01-21T19:14:49.204Z,15.02
2023-01-21T19:17:30.691Z,12.30
2023-01-21T19:19:58.000Z,15.00
2023-01-21T19:22:25.498Z,10.68
2023-01-21T19:24:52.379Z,10.80
2023-01-21T19:27:26.537Z,13.52
2023-01-21T19:29:53.858Z,13.35
2023-01-21T19:32:21.079Z,14.50
2023-01-21T19:34:48.132Z,12.48
2023-01-21T19:37:17.334Z,15.20
2023-01-21T19:39:44.300Z,13.75
2023-01-21T19:42:13.526Z,15.05
2023-01-21T19:44:40.806Z,11.50
2023-01-21T19:47:29.678Z,12.18
2023-01-21T19:49:56.987Z,16.85
2023-01-21T19:52:23.948Z,12.20
2023-01-21T19:54:52.218Z,14.55
2023-01-21T19:57:20.276Z,13.43
2023-01-21T19:59:49.746Z,10.18
2023-01-21T20:02:16.704Z,14.98
2023-01-21T20:04:43.694Z,13.95
2023-01-21T20:07:15.190Z,14.23
2023-01-21T20:09:42.742Z,14.82
2023-01-21T20:12:12.850Z,14.88
2023-01-21T20:14:39.753Z,13.13
2023-01-21T20:17:09.623Z,12.27
2023-01-21T20:19:36.532Z,13.50
2023-01-21T20:22:03.368Z,17.77
2023-01-21T20:24:34.194Z,16.52
2023-01-21T20:29:30.015Z,12.18
2023-01-21T20:31:59.717Z,12.95
2023-01-21T20:34:28.426Z,13.05
2023-01-21T20:36:56.168Z,12.40
2023-01-21T20:39:24.669Z,11.40
2023-01-21T20:41:51.591Z,11.95
2023-01-21T20:44:18.608Z,11.57
2023-01-21T20:46:46.109Z,11.43
2023-01-21T20:49:13.721Z,12.88
2023-01-21T20:51:40.664Z,12.32
2023-01-21T20:54:07.946Z,10.85
2023-01-21T20:56:38.552Z,10.45
2023-01-21T20:59:05.959Z,12.85
2023-01-21T21:01:34.965Z,13.35
2023-01-21T21:04:02.613Z,12.20
2023-01-21T21:06:29.807Z,10.88
2023-01-21T21:08:57.518Z,12.90
2023-01-21T21:11:24.599Z,10.75
2023-01-21T21:13:52.600Z,13.25
2023-01-21T21:16:32.014Z,10.60
2023-01-21T21:19:00.710Z,11.38
2023-01-21T21:21:28.131Z,9.18
2023-01-21T21:23:55.321Z,10.77
2023-01-21T21:26:24.934Z,15.85
2023-01-21T21:28:55.835Z,11.57
2023-01-21T21:33:50.936Z,8.43
2023-01-21T21:39:04.775Z,8.93
2023-01-21T21:41:50.641Z,8.13
2023-01-21T21:44:17.526Z,7.88
2023-01-21T21:47:02.911Z,7.38
2023-01-21T21:49:29.927Z,8.63
2023-01-21T21:51:57.325Z,7.72
2023-01-21T21:54:24.151Z,8.35
2023-01-21T21:56:51.080Z,6.78
2023-01-21T21:59:18.412Z,7.95
2023-01-21T22:01:45.332Z,6.78
2023-01-21T22:04:12.540Z,8.23
2023-01-21T22:06:39.912Z,9.25
2023-01-21T22:09:07.368Z,10.57
2023-01-21T22:11:34.252Z,6.88
2023-01-21T22:14:04.695Z,8.77
2023-01-21T22:16:32.073Z,6.95
2023-01-21T22:19:00.492Z,7.25
2023-01-21T22:21:29.706Z,6.43
2023-01-21T22:23:56.636Z,7.72
2023-01-21T22:26:25.770Z,8.13
2023-01-21T22:28:53.640Z,8.27
2023-01-21T22:31:31.673Z,9.23
2023-01-21T22:33:59.918Z,10.10
2023-01-21T22:36:29.904Z,8.57
2023-01-21T22:38:58.574Z,8.75
2023-01-21T22:41:26.271Z,6.90
2023-01-21T22:43:54.224Z,8.30
2023-01-21T22:46:31.767Z,10.90
2023-01-21T22:48:58.925Z,7.38
2023-01-21T22:51:26.383Z,7.15
2023-01-21T22:53:53.637Z,10.23
2023-01-21T22:56:31.498Z,9.13
2023-01-21T22:59:07.058Z,9.85
2023-01-21T23:01:34.392Z,8.55
2023-01-21T23:04:03.774Z,9.13
2023-01-21T23:06:30.706Z,9.98
2023-01-21T23:08:57.738Z,6.40
2023-01-21T23:11:24.639Z,9.02
2023-01-21T23:13:53.445Z,7.57
2023-01-21T23:16:24.731Z,7.68
2023-01-21T23:18:52.275Z,6.72
2023-01-21T23:21:21.961Z,8.18
2023-01-21T23:23:52.759Z,6.97
2023-01-21T23:26:20.357Z,9.98
2023-01-21T23:28:50.135Z,9.55
2023-01-21T23:31:18.457Z,9.48
2023-01-21T23:33:50.307Z,11.00
2023-01-21T23:36:18.065Z,7.45
2023-01-21T23:38:44.989Z,10.25
2023-01-21T23:41:17.147Z,7.47
2023-01-21T23:43:44.405Z,7.82
2023-01-21T23:46:14.333Z,7.00
2023-01-21T23:48:41.281Z,6.78
2023-01-21T23:51:12.113Z,8.93
2023-01-21T23:53:42.319Z,6.97
2023-01-21T23:56:13.591Z,8.48
2023-01-21T23:58:40.451Z,7.95
